createdAt,value
2019-02-15T00:00:37.765Z,-438.00
2019-02-15T00:01:38.006Z,-440.71
2019-02-15T00:02:38.218Z,-441.55
2019-02-15T00:03:38.462Z,-439.39
2019-02-15T00:04:38.802Z,-437.18
2019-02-15T00:05:38.908Z,-438.43
2019-02-15T00:06:39.151Z,-437.30
2019-02-15T00:07:39.364Z,-439.80
2019-02-15T00:08:39.581Z,-439.79
2019-02-15T00:09:39.841Z,-440.10
2019-02-15T00:10:40.084Z,-439.91
2019-02-15T00:11:40.328Z,-441.53
2019-02-15T00:12:40.655Z,-440.14
2019-02-15T00:13:40.742Z,-439.36
2019-02-15T00:14:41.018Z,-441.35
2019-02-15T00:15:41.239Z,-438.94
2019-02-15T00:16:41.477Z,-437.79
2019-02-15T00:17:41.689Z,-441.62
2019-02-15T00:18:41.923Z,-441.62
2019-02-15T00:19:42.154Z,-440.56
2019-02-15T00:20:42.475Z,-439.98
2019-02-15T00:21:42.621Z,-441.17
2019-02-15T00:22:42.826Z,-440.66
2019-02-15T00:23:43.067Z,-439.19
2019-02-15T00:24:43.311Z,-437.63
2019-02-15T00:25:43.518Z,-436.06
2019-02-15T00:26:43.773Z,-435.75
2019-02-15T00:27:44.002Z,-435.59
2019-02-15T00:28:44.275Z,-437.00
2019-02-15T00:29:44.456Z,-436.31
2019-02-15T00:30:44.693Z,-436.86
2019-02-15T00:31:44.931Z,-435.63
2019-02-15T00:32:45.143Z,-438.22
2019-02-15T00:33:45.376Z,-440.76
2019-02-15T00:34:45.628Z,-441.97
2019-02-15T00:35:45.839Z,-438.69
2019-02-15T00:36:46.112Z,-438.74
2019-02-15T00:37:46.365Z,-437.84
2019-02-15T00:38:46.529Z,-442.37
2019-02-15T00:39:46.779Z,-439.95
2019-02-15T00:40:46.999Z,-438.34
2019-02-15T00:41:47.239Z,-440.03
2019-02-15T00:42:47.432Z,-441.08
2019-02-15T00:43:47.679Z,-441.32
2019-02-15T00:44:47.946Z,-441.87
2019-02-15T00:45:48.321Z,-442.35
2019-02-15T00:46:48.403Z,-444.29
2019-02-15T00:47:48.612Z,-442.74
2019-02-15T00:48:49.095Z,-444.68
2019-02-15T00:49:49.094Z,-440.57
2019-02-15T00:50:49.325Z,-438.50
2019-02-15T00:51:49.579Z,-420.52
2019-02-15T00:52:49.774Z,-437.18
2019-02-15T00:53:50.084Z,-431.54
2019-02-15T00:54:50.243Z,-434.65
2019-02-15T00:55:50.456Z,-440.05
2019-02-15T00:56:50.706Z,-439.20
2019-02-15T00:57:50.934Z,-440.00
2019-02-15T00:58:51.152Z,-440.42
2019-02-15T00:59:51.390Z,-414.08
2019-02-15T01:00:51.628Z,-415.02
2019-02-15T01:01:51.898Z,-439.33
2019-02-15T01:02:52.085Z,-440.87
2019-02-15T01:03:52.322Z,-441.23
2019-02-15T01:04:52.553Z,-439.68
2019-02-15T01:05:52.783Z,-441.44
2019-02-15T01:06:53.047Z,-441.08
2019-02-15T01:07:53.278Z,-441.81
2019-02-15T01:08:53.486Z,-438.55
2019-02-15T01:09:53.796Z,-440.54
2019-02-15T01:10:53.918Z,-438.43
2019-02-15T01:11:54.202Z,-441.06
2019-02-15T01:12:54.430Z,-440.90
2019-02-15T01:13:54.642Z,-443.44
2019-02-15T01:14:54.890Z,-440.51
2019-02-15T01:15:55.104Z,-439.13
2019-02-15T01:16:55.328Z,-441.86
2019-02-15T01:17:55.611Z,-443.10
2019-02-15T01:18:55.920Z,-438.15
2019-02-15T01:19:56.056Z,-440.78
2019-02-15T01:20:56.269Z,-441.18
2019-02-15T01:21:56.520Z,-440.22
2019-02-15T01:22:56.746Z,-439.96
2019-02-15T01:23:56.960Z,-441.48
2019-02-15T01:24:57.206Z,-440.49
2019-02-15T01:25:57.420Z,-440.76
2019-02-15T01:26:57.753Z,-442.02
2019-02-15T01:27:57.893Z,-438.92
2019-02-15T01:28:58.108Z,-439.58
2019-02-15T01:29:58.358Z,-440.93
2019-02-15T01:30:58.577Z,-441.43
2019-02-15T01:31:58.830Z,-440.65
2019-02-15T01:32:59.034Z,-439.99
2019-02-15T01:33:59.269Z,-440.03
2019-02-15T01:34:59.632Z,-442.11
2019-02-15T01:35:59.731Z,-440.40
2019-02-15T01:36:59.984Z,-438.31
2019-02-15T01:38:00.192Z,-441.29
2019-02-15T01:39:00.427Z,-438.31
2019-02-15T01:40:00.677Z,-438.15
2019-02-15T01:41:00.888Z,-443.38
2019-02-15T01:42:01.223Z,-442.75
2019-02-15T01:43:01.403Z,-442.77
2019-02-15T01:44:01.546Z,-438.81
2019-02-15T01:45:01.818Z,-439.10
2019-02-15T01:46:02.043Z,-440.47
2019-02-15T01:47:02.273Z,-440.11
2019-02-15T01:48:02.544Z,-442.89
2019-02-15T01:49:02.728Z,-440.21
2019-02-15T01:50:02.969Z,-441.39
2019-02-15T01:51:03.263Z,-443.99
2019-02-15T01:52:03.474Z,-442.35
2019-02-15T01:53:03.674Z,-445.78
2019-02-15T01:54:03.896Z,-442.86
2019-02-15T01:55:04.101Z,-440.83
2019-02-15T01:56:04.330Z,-441.31
2019-02-15T01:57:04.588Z,-445.49
2019-02-15T01:58:04.838Z,-441.89
2019-02-15T01:59:05.046Z,-442.27
2019-02-15T02:00:05.399Z,-442.49
2019-02-15T02:01:05.522Z,-442.06
2019-02-15T02:02:05.762Z,-443.93
2019-02-15T02:03:06.047Z,-444.46
2019-02-15T02:04:06.222Z,-440.24
2019-02-15T02:05:06.452Z,-441.35
2019-02-15T02:06:06.676Z,-440.71
2019-02-15T02:07:06.923Z,-440.23
2019-02-15T02:08:07.341Z,-442.47
2019-02-15T02:09:07.410Z,-442.45
2019-02-15T02:10:07.624Z,-440.25
2019-02-15T02:11:07.854Z,-441.50
2019-02-15T02:12:08.105Z,-438.57
2019-02-15T02:13:08.336Z,-440.58
2019-02-15T02:14:08.548Z,-438.11
2019-02-15T02:15:08.780Z,-438.19
2019-02-15T02:16:09.041Z,-439.30
2019-02-15T02:17:09.226Z,-438.31
2019-02-15T02:18:09.475Z,-440.34
2019-02-15T02:19:09.691Z,-443.29
2019-02-15T02:20:09.925Z,-442.94
2019-02-15T02:21:10.170Z,-442.85
2019-02-15T02:22:10.388Z,-441.86
2019-02-15T02:23:10.620Z,-442.26
2019-02-15T02:24:10.943Z,-440.28
2019-02-15T02:25:11.073Z,-437.70
2019-02-15T02:26:11.541Z,-440.76
2019-02-15T02:27:11.534Z,-440.13
2019-02-15T02:28:11.792Z,-439.65
2019-02-15T02:29:12.002Z,-439.08
2019-02-15T02:30:12.247Z,-440.78
2019-02-15T02:31:12.505Z,-441.81
2019-02-15T02:32:12.736Z,-441.34
2019-02-15T02:33:13.011Z,-443.37
2019-02-15T02:34:13.175Z,-440.56
2019-02-15T02:35:13.402Z,-438.96
2019-02-15T02:36:13.663Z,-440.81
2019-02-15T02:37:13.879Z,-441.62
2019-02-15T02:38:14.146Z,-440.41
2019-02-15T02:39:14.340Z,-440.05
2019-02-15T02:40:14.569Z,-438.54
2019-02-15T02:41:14.951Z,-438.30
2019-02-15T02:42:15.082Z,-442.16
2019-02-15T02:43:15.344Z,-443.12
2019-02-15T02:44:15.538Z,-442.20
2019-02-15T02:45:15.750Z,-443.09
2019-02-15T02:46:16.016Z,-445.66
2019-02-15T02:47:16.243Z,-444.41
2019-02-15T02:48:16.522Z,-444.50
2019-02-15T02:49:16.817Z,-444.42
2019-02-15T02:50:16.914Z,-443.58
2019-02-15T02:51:17.174Z,-442.70
2019-02-15T02:52:17.399Z,-444.94
2019-02-15T02:53:17.647Z,-441.72
2019-02-15T02:54:17.858Z,-438.83
2019-02-15T02:55:18.088Z,-442.88
2019-02-15T02:56:18.328Z,-442.96
2019-02-15T02:57:18.570Z,-442.11
2019-02-15T02:58:18.768Z,-443.35
2019-02-15T02:59:18.984Z,-442.85
2019-02-15T03:00:19.236Z,-439.55
2019-02-15T03:01:19.470Z,-441.43
2019-02-15T03:02:19.669Z,-443.04
2019-02-15T03:03:19.935Z,-441.83
2019-02-15T03:04:20.167Z,-442.77
2019-02-15T03:05:20.453Z,-446.11
2019-02-15T03:06:20.620Z,-444.31
2019-02-15T03:07:20.844Z,-445.16
2019-02-15T03:08:21.078Z,-444.19
2019-02-15T03:09:21.333Z,-444.25
2019-02-15T03:10:21.610Z,-441.62
2019-02-15T03:11:21.823Z,-445.33
2019-02-15T03:12:22.039Z,-443.07
2019-02-15T03:13:22.291Z,-445.13
2019-02-15T03:14:22.608Z,-443.62
2019-02-15T03:15:22.771Z,-440.02
2019-02-15T03:16:23.001Z,-444.81
2019-02-15T03:17:23.219Z,-443.12
2019-02-15T03:18:23.467Z,-443.63
2019-02-15T03:19:23.675Z,-444.75
2019-02-15T03:20:30.827Z,-442.90
2019-02-15T03:21:25.174Z,-443.58
2019-02-15T03:22:24.496Z,-443.77
2019-02-15T03:23:24.616Z,-443.36
2019-02-15T03:24:24.837Z,-446.49
2019-02-15T03:25:25.088Z,-446.74
2019-02-15T03:26:25.329Z,-442.26
2019-02-15T03:27:25.554Z,-445.94
2019-02-15T03:28:25.772Z,-445.59
2019-02-15T03:29:26.019Z,-442.71
2019-02-15T03:30:26.291Z,-444.89
2019-02-15T03:31:26.486Z,-444.58
2019-02-15T03:32:26.686Z,-442.60
2019-02-15T03:33:26.937Z,-444.54
2019-02-15T03:34:27.171Z,-445.83
2019-02-15T03:35:27.360Z,-443.74
2019-02-15T03:36:27.616Z,-445.59
2019-02-15T03:37:27.839Z,-443.79
2019-02-15T03:38:28.167Z,-443.10
2019-02-15T03:39:28.304Z,-444.03
2019-02-15T03:40:28.521Z,-440.66
2019-02-15T03:41:28.788Z,-442.34
2019-02-15T03:42:28.966Z,-441.41
2019-02-15T03:43:29.201Z,-443.31
2019-02-15T03:44:29.462Z,-444.72
2019-02-15T03:45:29.676Z,-444.09
2019-02-15T03:46:29.993Z,-445.22
2019-02-15T03:47:30.141Z,-440.61
2019-02-15T03:48:30.409Z,-440.73
2019-02-15T03:49:30.623Z,-441.29
2019-02-15T03:50:30.841Z,-440.57
2019-02-15T03:51:31.088Z,-439.72
2019-02-15T03:52:31.294Z,-441.60
2019-02-15T03:53:31.528Z,-440.20
2019-02-15T03:54:31.792Z,-441.20
2019-02-15T03:55:32.081Z,-441.55
2019-02-15T03:56:32.256Z,-439.87
2019-02-15T03:57:32.428Z,-439.19
2019-02-15T03:58:32.660Z,-439.02
2019-02-15T03:59:32.924Z,-441.41
2019-02-15T04:00:33.137Z,-442.52
2019-02-15T04:01:33.429Z,-441.76
2019-02-15T04:02:33.595Z,-442.07
2019-02-15T04:03:34.064Z,-441.99
2019-02-15T04:04:34.407Z,-440.89
2019-02-15T04:05:34.401Z,-440.20
2019-02-15T04:06:34.657Z,-441.89
2019-02-15T04:07:34.859Z,-443.02
2019-02-15T04:08:35.099Z,-442.68
2019-02-15T04:09:35.321Z,-443.03
2019-02-15T04:10:35.563Z,-443.34
2019-02-15T04:11:35.863Z,-443.02
2019-02-15T04:12:35.993Z,-443.22
2019-02-15T04:13:36.229Z,-443.45
2019-02-15T04:14:36.484Z,-440.54
2019-02-15T04:15:36.677Z,-442.63
2019-02-15T04:16:36.929Z,-441.94
2019-02-15T04:17:37.149Z,-443.25
2019-02-15T04:18:37.408Z,-445.33
2019-02-15T04:19:37.655Z,-444.04
2019-02-15T04:20:37.802Z,-445.39
2019-02-15T04:21:38.094Z,-444.86
2019-02-15T04:22:38.315Z,-444.70
2019-02-15T04:23:38.566Z,-443.04
2019-02-15T04:24:38.802Z,-441.82
2019-02-15T04:25:39.044Z,-445.01
2019-02-15T04:26:39.234Z,-447.62
2019-02-15T04:27:39.521Z,-443.95
2019-02-15T04:28:39.769Z,-446.06
2019-02-15T04:29:39.975Z,-444.55
2019-02-15T04:30:40.188Z,-442.82
2019-02-15T04:31:40.437Z,-445.16
2019-02-15T04:32:40.647Z,-445.84
2019-02-15T04:33:40.879Z,-443.38
2019-02-15T04:34:41.122Z,-445.28
2019-02-15T04:35:41.356Z,-442.77
2019-02-15T04:36:41.718Z,-444.10
2019-02-15T04:37:41.819Z,-446.60
2019-02-15T04:38:42.052Z,-444.62
2019-02-15T04:39:42.296Z,-444.98
2019-02-15T04:40:42.505Z,-442.91
2019-02-15T04:41:42.763Z,-443.93
2019-02-15T04:42:42.980Z,-446.04
2019-02-15T04:43:43.190Z,-446.40
2019-02-15T04:44:43.544Z,-446.49
2019-02-15T04:45:43.665Z,-442.62
2019-02-15T04:46:43.911Z,-443.36
2019-02-15T04:47:44.138Z,-445.00
2019-02-15T04:48:44.333Z,-442.82
2019-02-15T04:49:44.617Z,-443.17
2019-02-15T04:50:44.811Z,-445.46
2019-02-15T04:51:45.044Z,-443.65
2019-02-15T04:52:45.322Z,-444.02
2019-02-15T04:53:45.466Z,-443.15
2019-02-15T04:54:45.734Z,-443.32
2019-02-15T04:55:45.951Z,-444.96
2019-02-15T04:56:46.180Z,-444.84
2019-02-15T04:57:46.439Z,-443.63
2019-02-15T04:58:46.648Z,-441.46
2019-02-15T04:59:46.915Z,-444.87
2019-02-15T05:00:47.113Z,-443.58
2019-02-15T05:01:47.313Z,-444.40
2019-02-15T05:02:47.587Z,-444.22
2019-02-15T05:03:47.791Z,-440.90
2019-02-15T05:04:48.067Z,-444.61
2019-02-15T05:05:48.233Z,-443.88
2019-02-15T05:06:48.468Z,-441.98
2019-02-15T05:07:48.728Z,-442.47
2019-02-15T05:08:48.980Z,-441.84
2019-02-15T05:09:49.282Z,-441.93
2019-02-15T05:10:49.402Z,-443.37
2019-02-15T05:11:49.632Z,-442.99
2019-02-15T05:12:49.910Z,-442.36
2019-02-15T05:13:50.118Z,-443.06
2019-02-15T05:14:53.097Z,-441.50
2019-02-15T05:15:50.577Z,-438.48
2019-02-15T05:16:50.794Z,-441.22
2019-02-15T05:17:51.197Z,-441.87
2019-02-15T05:18:51.281Z,-436.93
2019-02-15T05:19:51.541Z,-441.05
2019-02-15T05:20:51.755Z,-442.57
2019-02-15T05:21:51.951Z,-441.76
2019-02-15T05:22:52.501Z,-441.82
2019-02-15T05:23:52.458Z,-440.38
2019-02-15T05:24:52.686Z,-440.42
2019-02-15T05:25:52.990Z,-439.49
2019-02-15T05:26:53.120Z,-442.37
2019-02-15T05:27:53.381Z,-444.16
2019-02-15T05:28:53.600Z,-440.41
2019-02-15T05:29:53.835Z,-439.01
2019-02-15T05:30:54.077Z,-437.56
2019-02-15T05:31:54.306Z,-438.76
2019-02-15T05:32:54.584Z,-439.59
2019-02-15T05:33:54.791Z,-442.11
2019-02-15T05:34:54.993Z,-440.62
2019-02-15T05:35:55.233Z,-442.47
2019-02-15T05:36:55.444Z,-441.37
2019-02-15T05:37:55.695Z,-443.39
2019-02-15T05:38:55.903Z,-442.20
2019-02-15T05:39:56.128Z,-439.46
2019-02-15T05:40:56.376Z,-439.70
2019-02-15T05:41:56.633Z,-440.76
2019-02-15T05:42:57.093Z,-441.08
2019-02-15T05:43:57.075Z,-442.27
2019-02-15T05:45:03.314Z,-438.49
2019-02-15T05:45:58.564Z,-440.31
2019-02-15T05:46:57.774Z,-439.48
2019-02-15T05:47:58.047Z,-437.24
2019-02-15T05:48:58.242Z,-438.98
2019-02-15T05:49:58.496Z,-435.87
2019-02-15T05:50:58.811Z,-438.19
2019-02-15T05:51:58.935Z,-435.50
2019-02-15T05:52:59.194Z,-436.74
2019-02-15T05:53:59.394Z,-437.76
2019-02-15T05:54:59.622Z,-439.99
2019-02-15T05:55:59.854Z,-438.54
2019-02-15T05:57:00.087Z,-440.09
2019-02-15T05:58:00.370Z,-438.31
2019-02-15T05:59:00.689Z,-437.63
2019-02-15T06:00:00.788Z,-437.64
2019-02-15T06:01:01.017Z,-436.23
2019-02-15T06:02:01.244Z,-439.88
2019-02-15T06:03:01.520Z,-440.49
2019-02-15T06:04:01.712Z,-438.42
2019-02-15T06:05:01.951Z,-438.08
2019-02-15T06:06:02.199Z,-438.45
2019-02-15T06:07:02.448Z,-437.40
2019-02-15T06:08:02.669Z,-437.51
2019-02-15T06:09:02.866Z,-438.08
2019-02-15T06:10:03.113Z,-439.15
2019-02-15T06:11:07.515Z,-436.10
2019-02-15T06:12:03.543Z,-437.52
2019-02-15T06:13:03.790Z,-436.99
2019-02-15T06:14:04.022Z,-436.46
2019-02-15T06:15:14.439Z,-436.63
2019-02-15T06:16:05.483Z,-438.22
2019-02-15T06:17:04.698Z,-439.13
2019-02-15T06:18:04.934Z,-435.59
2019-02-15T06:19:05.156Z,-435.93
2019-02-15T06:20:05.413Z,-435.58
2019-02-15T06:21:05.652Z,-435.52
2019-02-15T06:22:05.872Z,-434.75
2019-02-15T06:23:06.165Z,-435.56
2019-02-15T06:24:06.408Z,-435.84
2019-02-15T06:25:06.590Z,-434.18
2019-02-15T06:26:06.820Z,-436.40
2019-02-15T06:27:07.024Z,-434.07
2019-02-15T06:28:07.287Z,-436.39
2019-02-15T06:29:07.491Z,-434.67
2019-02-15T06:30:07.710Z,-435.35
2019-02-15T06:31:07.986Z,-437.32
2019-02-15T06:32:08.320Z,-429.54
2019-02-15T06:33:08.436Z,-432.06
2019-02-15T06:34:08.658Z,-428.49
2019-02-15T06:35:08.919Z,-403.54
2019-02-15T06:36:09.163Z,-428.93
2019-02-15T06:37:09.378Z,-429.59
2019-02-15T06:38:09.603Z,-431.95
2019-02-15T06:39:09.854Z,-432.76
2019-02-15T06:40:10.168Z,-434.03
2019-02-15T06:41:12.178Z,-432.66
2019-02-15T06:42:10.546Z,-431.74
2019-02-15T06:43:10.784Z,-435.61
2019-02-15T06:44:11.036Z,-431.44
2019-02-15T06:45:11.228Z,-433.07
2019-02-15T06:46:11.496Z,-431.42
2019-02-15T06:47:11.704Z,-436.25
2019-02-15T06:48:11.972Z,-434.25
2019-02-15T06:49:12.236Z,-436.20
2019-02-15T06:50:12.371Z,-434.78
2019-02-15T06:51:12.638Z,-435.50
2019-02-15T06:52:12.867Z,-433.29
2019-02-15T06:53:13.098Z,-431.77
2019-02-15T06:54:13.355Z,-434.23
2019-02-15T06:55:13.556Z,-435.35
2019-02-15T06:56:13.862Z,-434.08
2019-02-15T06:57:13.977Z,-430.84
2019-02-15T06:58:14.224Z,-434.00
2019-02-15T06:59:14.493Z,-431.28
2019-02-15T07:00:14.686Z,-431.56
2019-02-15T07:01:14.937Z,-430.23
2019-02-15T07:02:15.169Z,-426.47
2019-02-15T07:03:15.375Z,-426.75
2019-02-15T07:04:15.685Z,-425.97
2019-02-15T07:05:15.915Z,-431.05
2019-02-15T07:06:16.096Z,-424.56
2019-02-15T07:07:16.291Z,-432.81
2019-02-15T07:08:16.522Z,-430.12
2019-02-15T07:09:16.790Z,-429.59
2019-02-15T07:10:17.002Z,-429.73
2019-02-15T07:11:17.245Z,-431.50
2019-02-15T07:12:17.472Z,-428.32
2019-02-15T07:13:17.804Z,-428.37
2019-02-15T07:14:17.943Z,-429.75
2019-02-15T07:15:18.147Z,-427.90
2019-02-15T07:16:18.397Z,-429.41
2019-02-15T07:17:18.654Z,-432.26
2019-02-15T07:18:18.820Z,-430.79
2019-02-15T07:19:19.074Z,-429.54
2019-02-15T07:20:19.298Z,-433.52
2019-02-15T07:21:19.921Z,-432.26
2019-02-15T07:22:19.761Z,-432.62
2019-02-15T07:23:20.018Z,-430.81
2019-02-15T07:24:20.240Z,-431.40
2019-02-15T07:25:20.464Z,-431.69
2019-02-15T07:26:20.715Z,-433.14
2019-02-15T07:27:20.927Z,-432.50
2019-02-15T07:28:21.157Z,-433.94
2019-02-15T07:29:21.450Z,-431.63
2019-02-15T07:30:21.600Z,-433.21
2019-02-15T07:31:21.854Z,-432.11
2019-02-15T07:32:22.083Z,-435.30
2019-02-15T07:33:22.311Z,-431.78
2019-02-15T07:34:22.584Z,-427.90
2019-02-15T07:35:22.781Z,-429.89
2019-02-15T07:36:22.996Z,-433.67
2019-02-15T07:37:23.300Z,-431.74
2019-02-15T07:38:23.461Z,-430.96
2019-02-15T07:39:23.717Z,-429.52
2019-02-15T07:40:23.938Z,-431.15
2019-02-15T07:41:24.151Z,-431.95
2019-02-15T07:42:24.416Z,-408.18
2019-02-15T07:43:24.662Z,-409.11
2019-02-15T07:44:24.936Z,-409.38
2019-02-15T07:45:25.147Z,-408.28
2019-02-15T07:46:25.413Z,-407.18
2019-02-15T07:47:25.649Z,-410.32
2019-02-15T07:48:25.811Z,-408.25
2019-02-15T07:49:26.796Z,-405.84
2019-02-15T07:50:26.309Z,-409.88
2019-02-15T07:51:26.520Z,-409.18
2019-02-15T07:52:26.735Z,-409.22
2019-02-15T07:53:26.982Z,-407.80
2019-02-15T07:54:27.361Z,-408.85
2019-02-15T07:55:27.466Z,-410.40
2019-02-15T07:56:27.679Z,-408.25
2019-02-15T07:57:27.907Z,-412.37
2019-02-15T07:58:28.132Z,-411.97
2019-02-15T07:59:28.378Z,-413.12
2019-02-15T08:00:28.625Z,-411.83
2019-02-15T08:01:28.834Z,-411.88
2019-02-15T08:02:29.144Z,-413.22
2019-02-15T08:03:29.283Z,-412.28
2019-02-15T08:04:29.533Z,-411.62
2019-02-15T08:05:29.757Z,-412.44
2019-02-15T08:06:29.977Z,-412.70
2019-02-15T08:07:30.234Z,-413.34
2019-02-15T08:08:30.434Z,-412.78
2019-02-15T08:09:30.686Z,-413.45
2019-02-15T08:10:30.961Z,-415.44
2019-02-15T08:11:31.110Z,-414.51
2019-02-15T08:12:31.369Z,-414.27
2019-02-15T08:13:31.580Z,-416.44
2019-02-15T08:14:31.823Z,-417.91
2019-02-15T08:15:36.226Z,-415.78
2019-02-15T08:16:32.289Z,-414.68
2019-02-15T08:17:32.516Z,-413.78
2019-02-15T08:18:32.787Z,-415.11
2019-02-15T08:19:32.952Z,-414.77
2019-02-15T08:20:33.181Z,-414.31
2019-02-15T08:21:33.427Z,-417.03
2019-02-15T08:22:33.670Z,-415.74
2019-02-15T08:23:33.883Z,-414.84
2019-02-15T08:24:34.130Z,-415.01
2019-02-15T08:25:34.357Z,-415.38
2019-02-15T08:26:34.632Z,-415.92
2019-02-15T08:27:34.908Z,-417.14
2019-02-15T08:28:35.043Z,-414.82
2019-02-15T08:29:35.285Z,-416.44
2019-02-15T08:30:35.498Z,-415.54
2019-02-15T08:31:35.749Z,-414.70
2019-02-15T08:32:35.993Z,-416.74
2019-02-15T08:33:36.207Z,-416.11
2019-02-15T08:34:36.456Z,-413.31
2019-02-15T08:35:36.816Z,-414.89
2019-02-15T08:36:36.928Z,-415.25
2019-02-15T08:37:37.181Z,-414.15
2019-02-15T08:38:37.395Z,-416.46
2019-02-15T08:39:37.630Z,-413.26
2019-02-15T08:40:37.889Z,-413.52
2019-02-15T08:41:38.085Z,-414.94
2019-02-15T08:42:38.337Z,-418.65
2019-02-15T08:43:38.673Z,-415.80
2019-02-15T08:44:38.783Z,-412.96
2019-02-15T08:45:39.032Z,-412.81
2019-02-15T08:46:39.272Z,-415.05
2019-02-15T08:47:39.784Z,-415.08
2019-02-15T08:48:45.951Z,-415.40
2019-02-15T08:49:40.956Z,-416.13
2019-02-15T08:50:40.224Z,-415.90
2019-02-15T08:51:40.461Z,-414.51
2019-02-15T08:52:40.630Z,-414.06
2019-02-15T08:53:40.851Z,-417.17
2019-02-15T08:54:41.095Z,-415.53
2019-02-15T08:55:41.337Z,-415.52
2019-02-15T08:56:41.558Z,-414.73
2019-02-15T08:57:41.801Z,-414.31
2019-02-15T08:58:42.017Z,-414.77
2019-02-15T08:59:42.263Z,-413.10
2019-02-15T09:00:42.774Z,-416.95
2019-02-15T09:01:42.720Z,-410.52
2019-02-15T09:02:42.965Z,-415.26
2019-02-15T09:03:43.165Z,-414.72
2019-02-15T09:04:43.393Z,-414.41
2019-02-15T09:05:43.649Z,-408.94
2019-02-15T09:06:43.877Z,-412.76
2019-02-15T09:07:44.150Z,-410.93
2019-02-15T09:08:44.426Z,-412.79
2019-02-15T09:09:44.544Z,-413.06
2019-02-15T09:10:44.807Z,-413.24
2019-02-15T09:11:45.019Z,-412.58
2019-02-15T09:12:45.263Z,-415.21
2019-02-15T09:13:45.484Z,-413.60
2019-02-15T09:14:45.702Z,-411.32
2019-02-15T09:15:45.944Z,-410.93
2019-02-15T09:16:46.264Z,-414.67
2019-02-15T09:17:46.416Z,-412.23
2019-02-15T09:18:46.634Z,-411.08
2019-02-15T09:19:47.044Z,-413.83
2019-02-15T09:20:47.122Z,-413.68
2019-02-15T09:21:47.339Z,-411.28
2019-02-15T09:22:47.589Z,-412.54
2019-02-15T09:23:47.802Z,-413.07
2019-02-15T09:24:48.059Z,-412.97
2019-02-15T09:25:48.263Z,-408.20
2019-02-15T09:26:48.498Z,-411.57
2019-02-15T09:27:48.727Z,-412.46
2019-02-15T09:28:48.942Z,-411.15
2019-02-15T09:29:49.177Z,-412.75
2019-02-15T09:30:49.422Z,-413.69
2019-02-15T09:31:49.635Z,-408.44
2019-02-15T09:32:49.955Z,-412.30
2019-02-15T09:33:50.093Z,-411.36
2019-02-15T09:34:50.324Z,-410.00
2019-02-15T09:35:50.572Z,-415.11
2019-02-15T09:36:50.808Z,-410.87
2019-02-15T09:37:51.031Z,-412.84
2019-02-15T09:38:51.253Z,-412.69
2019-02-15T09:39:51.493Z,-411.05
2019-02-15T09:40:51.779Z,-411.18
2019-02-15T09:41:52.032Z,-411.22
2019-02-15T09:42:52.178Z,-412.72
2019-02-15T09:43:52.424Z,-413.51
2019-02-15T09:44:52.646Z,-411.52
2019-02-15T09:45:52.903Z,-413.82
2019-02-15T09:46:53.128Z,-411.81
2019-02-15T09:47:53.351Z,-414.41
2019-02-15T09:48:53.617Z,-413.14
2019-02-15T09:49:53.901Z,-415.86
2019-02-15T09:50:54.068Z,-413.24
2019-02-15T09:51:55.507Z,-410.68
2019-02-15T09:52:54.497Z,-413.50
2019-02-15T09:53:54.740Z,-412.84
2019-02-15T09:54:54.992Z,-413.93
2019-02-15T09:55:55.237Z,-410.96
2019-02-15T09:56:55.503Z,-410.52
2019-02-15T09:57:55.776Z,-434.74
2019-02-15T09:58:55.908Z,-436.45
2019-02-15T09:59:56.132Z,-436.02
2019-02-15T10:00:56.385Z,-435.57
2019-02-15T10:01:56.610Z,-439.42
2019-02-15T10:02:56.830Z,-443.13
2019-02-15T10:03:57.081Z,-414.40
2019-02-15T10:04:57.276Z,-437.66
2019-02-15T10:05:57.587Z,-437.67
2019-02-15T10:06:57.745Z,-437.03
2019-02-15T10:07:57.973Z,-438.05
2019-02-15T10:08:58.220Z,-439.00
2019-02-15T10:09:58.420Z,-439.67
2019-02-15T10:10:58.674Z,-441.81
2019-02-15T10:11:58.912Z,-440.77
2019-02-15T10:12:59.128Z,-438.73
2019-02-15T10:13:59.430Z,-438.35
2019-02-15T10:14:59.581Z,-439.09
2019-02-15T10:15:59.808Z,-438.22
2019-02-15T10:17:00.027Z,-440.57
2019-02-15T10:18:00.273Z,-437.94
2019-02-15T10:19:00.529Z,-439.89
2019-02-15T10:20:00.755Z,-441.64
2019-02-15T10:21:00.974Z,-439.63
2019-02-15T10:22:01.207Z,-436.93
2019-02-15T10:23:01.483Z,-439.67
2019-02-15T10:24:01.695Z,-437.59
2019-02-15T10:25:01.932Z,-439.04
2019-02-15T10:26:02.148Z,-436.81
2019-02-15T10:27:02.358Z,-439.30
2019-02-15T10:28:02.599Z,-438.28
2019-02-15T10:29:02.861Z,-441.30
2019-02-15T10:30:03.079Z,-440.15
2019-02-15T10:31:03.449Z,-440.54
2019-02-15T10:32:03.566Z,-441.99
2019-02-15T10:33:03.792Z,-440.23
2019-02-15T10:34:04.034Z,-440.28
2019-02-15T10:35:04.279Z,-439.55
2019-02-15T10:36:04.497Z,-438.90
2019-02-15T10:37:04.704Z,-440.85
2019-02-15T10:38:04.927Z,-439.77
2019-02-15T10:39:05.521Z,-439.07
2019-02-15T10:40:05.417Z,-441.60
2019-02-15T10:41:05.633Z,-439.84
2019-02-15T10:42:05.854Z,-441.37
2019-02-15T10:43:06.069Z,-440.56
2019-02-15T10:44:06.317Z,-440.05
2019-02-15T10:45:06.557Z,-441.18
2019-02-15T10:46:06.776Z,-440.92
2019-02-15T10:47:13.870Z,-443.75
2019-02-15T10:48:08.224Z,-438.92
2019-02-15T10:49:07.464Z,-442.13
2019-02-15T10:50:07.683Z,-444.16
2019-02-15T10:51:07.919Z,-443.20
2019-02-15T10:52:08.178Z,-441.48
2019-02-15T10:53:08.402Z,-443.12
2019-02-15T10:54:08.644Z,-446.57
2019-02-15T10:55:08.929Z,-447.57
2019-02-15T10:56:09.076Z,-446.71
2019-02-15T10:57:09.366Z,-448.54
2019-02-15T10:58:09.583Z,-443.71
2019-02-15T10:59:11.122Z,-443.40
2019-02-15T11:00:10.053Z,-442.61
2019-02-15T11:01:10.260Z,-445.73
2019-02-15T11:02:10.510Z,-446.34
2019-02-15T11:03:10.756Z,-443.01
2019-02-15T11:04:11.076Z,-444.80
2019-02-15T11:05:11.215Z,-442.78
2019-02-15T11:06:11.411Z,-442.93
2019-02-15T11:07:11.711Z,-442.25
2019-02-15T11:08:11.888Z,-441.15
2019-02-15T11:09:12.135Z,-447.01
2019-02-15T11:10:12.352Z,-444.23
2019-02-15T11:11:12.582Z,-448.53
2019-02-15T11:12:12.935Z,-444.09
2019-02-15T11:13:13.034Z,-449.26
2019-02-15T11:14:13.291Z,-447.92
2019-02-15T11:15:13.498Z,-449.87
2019-02-15T11:16:13.732Z,-452.85
2019-02-15T11:17:13.989Z,-452.54
2019-02-15T11:18:14.202Z,-447.29
2019-02-15T11:19:14.464Z,-447.78
2019-02-15T11:20:14.789Z,-451.14
2019-02-15T11:21:14.957Z,-449.33
2019-02-15T11:22:22.113Z,-448.03
2019-02-15T11:23:15.417Z,-452.69
2019-02-15T11:24:15.609Z,-447.45
2019-02-15T11:25:15.824Z,-450.20
2019-02-15T11:26:24.275Z,-443.90
2019-02-15T11:27:22.974Z,-442.43
2019-02-15T11:28:16.556Z,-447.28
2019-02-15T11:29:16.736Z,-445.70
2019-02-15T11:30:16.973Z,-446.44
2019-02-15T11:31:17.206Z,-446.53
2019-02-15T11:32:17.472Z,-448.78
2019-02-15T11:33:17.677Z,-452.03
2019-02-15T11:34:17.909Z,-447.73
2019-02-15T11:35:18.109Z,-453.02
2019-02-15T11:36:18.447Z,-446.51
2019-02-15T11:37:18.625Z,-448.27
2019-02-15T11:38:18.831Z,-432.91
2019-02-15T11:39:19.073Z,-445.36
2019-02-15T11:40:19.285Z,-444.66
2019-02-15T11:41:19.545Z,-448.89
2019-02-15T11:42:19.779Z,-446.51
2019-02-15T11:43:19.987Z,-448.60
2019-02-15T11:44:20.258Z,-447.04
2019-02-15T11:45:20.556Z,-455.46
2019-02-15T11:46:20.719Z,-450.50
2019-02-15T11:47:20.941Z,-456.77
2019-02-15T11:48:21.150Z,-460.89
2019-02-15T11:49:21.430Z,-454.48
2019-02-15T11:50:21.609Z,-451.24
2019-02-15T11:51:21.851Z,-446.84
2019-02-15T11:52:22.088Z,-450.04
2019-02-15T11:53:22.437Z,-463.12
2019-02-15T11:54:23.670Z,-465.60
2019-02-15T11:55:22.758Z,-461.53
2019-02-15T11:56:22.999Z,-457.95
2019-02-15T11:57:23.253Z,-459.41
2019-02-15T11:58:23.467Z,-459.24
2019-02-15T11:59:23.698Z,-458.54
2019-02-15T12:00:23.942Z,-456.54
2019-02-15T12:01:24.261Z,-457.05
2019-02-15T12:02:24.424Z,-458.87
2019-02-15T12:03:24.652Z,-457.19
2019-02-15T12:04:24.878Z,-450.74
2019-02-15T12:05:25.119Z,-452.91
2019-02-15T12:06:25.335Z,-453.29
2019-02-15T12:07:25.581Z,-462.49
2019-02-15T12:08:25.786Z,-459.88